sensor_id;sensor_type;location;lat;lon;timestamp;P1;durP1;ratioP1;P2;durP2;ratioP2
16824;SDS011;8529;48.108;-1.706;2024-01-10T00:00:26;30.63;;;14.47;;
16824;SDS011;8529;48.108;-1.706;2024-01-10T00:02:53;28.00;;;14.13;;
16824;SDS011;8529;48.108;-1.706;2024-01-10T00:05:21;27.63;;;13.73;;
16824;SDS011;8529;48.108;-1.706;2024-01-10T00:07:48;29.53;;;14.43;;
16824;SDS011;8529;48.108;-1.706;2024-01-10T00:10:15;29.17;;;13.83;;
16824;SDS011;8529;48.108;-1.706;2024-01-10T00:12:43;31.37;;;14.27;;
16824;SDS011;8529;48.108;-1.706;2024-01-10T00:15:10;30.50;;;15.63;;
16824;SDS011;8529;48.108;-1.706;2024-01-10T00:17:39;32.97;;;15.07;;
16824;SDS011;8529;48.108;-1.706;2024-01-10T00:20:07;30.90;;;14.57;;
16824;SDS011;8529;48.108;-1.706;2024-01-10T00:22:34;29.30;;;15.27;;
16824;SDS011;8529;48.108;-1.706;2024-01-10T00:25:01;33.23;;;16.07;;
16824;SDS011;8529;48.108;-1.706;2024-01-10T00:27:29;30.07;;;14.97;;
16824;SDS011;8529;48.108;-1.706;2024-01-10T00:29:56;30.40;;;14.73;;
16824;SDS011;8529;48.108;-1.706;2024-01-10T00:32:23;30.33;;;14.30;;
16824;SDS011;8529;48.108;-1.706;2024-01-10T00:34:52;30.90;;;14.40;;
16824;SDS011;8529;48.108;-1.706;2024-01-10T00:37:19;33.23;;;15.67;;
16824;SDS011;8529;48.108;-1.706;2024-01-10T00:39:46;30.60;;;14.67;;
16824;SDS011;8529;48.108;-1.706;2024-01-10T00:42:13;31.77;;;15.23;;
16824;SDS011;8529;48.108;-1.706;2024-01-10T00:44:41;31.90;;;14.97;;
16824;SDS011;8529;48.108;-1.706;2024-01-10T00:47:08;31.67;;;15.93;;
16824;SDS011;8529;48.108;-1.706;2024-01-10T00:49:35;35.90;;;16.33;;
16824;SDS011;8529;48.108;-1.706;2024-01-10T00:52:04;32.97;;;15.63;;
16824;SDS011;8529;48.108;-1.706;2024-01-10T00:54:31;37.37;;;16.40;;
16824;SDS011;8529;48.108;-1.706;2024-01-10T00:56:58;30.57;;;15.00;;
16824;SDS011;8529;48.108;-1.706;2024-01-10T00:59:25;30.23;;;14.77;;
16824;SDS011;8529;48.108;-1.706;2024-01-10T01:01:52;33.80;;;14.83;;
16824;SDS011;8529;48.108;-1.706;2024-01-10T01:04:19;33.47;;;15.63;;
16824;SDS011;8529;48.108;-1.706;2024-01-10T01:06:46;34.87;;;16.30;;
16824;SDS011;8529;48.108;-1.706;2024-01-10T01:09:15;35.57;;;16.47;;
16824;SDS011;8529;48.108;-1.706;2024-01-10T01:11:42;35.43;;;16.17;;
16824;SDS011;8529;48.108;-1.706;2024-01-10T01:14:09;32.30;;;15.47;;
16824;SDS011;8529;48.108;-1.706;2024-01-10T01:16:37;30.63;;;15.33;;
16824;SDS011;8529;48.108;-1.706;2024-01-10T01:19:04;35.20;;;16.97;;
16824;SDS011;8529;48.108;-1.706;2024-01-10T01:21:31;35.73;;;16.63;;
16824;SDS011;8529;48.108;-1.706;2024-01-10T01:23:58;33.83;;;15.23;;
16824;SDS011;8529;48.108;-1.706;2024-01-10T01:26:27;34.67;;;15.67;;
16824;SDS011;8529;48.108;-1.706;2024-01-10T01:28:54;34.93;;;15.70;;
16824;SDS011;8529;48.108;-1.706;2024-01-10T01:31:21;37.83;;;16.93;;
16824;SDS011;8529;48.108;-1.706;2024-01-10T01:33:48;36.13;;;16.67;;
16824;SDS011;8529;48.108;-1.706;2024-01-10T01:36:15;34.00;;;15.77;;
16824;SDS011;8529;48.108;-1.706;2024-01-10T01:38:42;36.57;;;15.83;;
16824;SDS011;8529;48.108;-1.706;2024-01-10T01:41:09;37.13;;;15.93;;
16824;SDS011;8529;48.108;-1.706;2024-01-10T01:43:39;41.43;;;17.03;;
16824;SDS011;8529;48.108;-1.706;2024-01-10T01:46:06;34.97;;;16.73;;
16824;SDS011;8529;48.108;-1.706;2024-01-10T01:48:34;37.17;;;17.47;;
16824;SDS011;8529;48.108;-1.706;2024-01-10T01:51:02;33.63;;;16.60;;
16824;SDS011;8529;48.108;-1.706;2024-01-10T01:53:31;37.40;;;15.57;;
16824;SDS011;8529;48.108;-1.706;2024-01-10T01:56:02;35.73;;;16.97;;
16824;SDS011;8529;48.108;-1.706;2024-01-10T01:58:29;38.63;;;17.80;;
16824;SDS011;8529;48.108;-1.706;2024-01-10T02:00:58;41.57;;;16.77;;
16824;SDS011;8529;48.108;-1.706;2024-01-10T02:03:26;38.00;;;17.37;;
16824;SDS011;8529;48.108;-1.706;2024-01-10T02:05:53;38.30;;;18.07;;
16824;SDS011;8529;48.108;-1.706;2024-01-10T02:08:20;36.77;;;16.67;;
16824;SDS011;8529;48.108;-1.706;2024-01-10T02:10:47;40.43;;;17.27;;
16824;SDS011;8529;48.108;-1.706;2024-01-10T02:13:14;35.83;;;16.93;;
16824;SDS011;8529;48.108;-1.706;2024-01-10T02:15:42;40.97;;;17.37;;
16824;SDS011;8529;48.108;-1.706;2024-01-10T02:18:10;38.07;;;17.30;;
16824;SDS011;8529;48.108;-1.706;2024-01-10T02:20:39;42.17;;;16.90;;
16824;SDS011;8529;48.108;-1.706;2024-01-10T02:23:06;40.37;;;16.97;;
16824;SDS011;8529;48.108;-1.706;2024-01-10T02:25:35;43.27;;;17.93;;
16824;SDS011;8529;48.108;-1.706;2024-01-10T02:28:02;45.23;;;18.77;;
16824;SDS011;8529;48.108;-1.706;2024-01-10T02:30:30;39.27;;;17.33;;
16824;SDS011;8529;48.108;-1.706;2024-01-10T02:32:57;39.30;;;17.13;;
16824;SDS011;8529;48.108;-1.706;2024-01-10T02:35:24;37.87;;;17.30;;
16824;SDS011;8529;48.108;-1.706;2024-01-10T02:37:52;39.20;;;17.30;;
16824;SDS011;8529;48.108;-1.706;2024-01-10T02:40:19;37.07;;;16.43;;
16824;SDS011;8529;48.108;-1.706;2024-01-10T02:42:48;37.83;;;16.90;;
16824;SDS011;8529;48.108;-1.706;2024-01-10T02:45:16;36.63;;;17.30;;
16824;SDS011;8529;48.108;-1.706;2024-01-10T02:47:44;40.37;;;17.07;;
16824;SDS011;8529;48.108;-1.706;2024-01-10T02:50:11;37.93;;;16.77;;
16824;SDS011;8529;48.108;-1.706;2024-01-10T02:52:38;40.57;;;18.27;;
16824;SDS011;8529;48.108;-1.706;2024-01-10T02:55:06;39.80;;;17.37;;
16824;SDS011;8529;48.108;-1.706;2024-01-10T02:57:33;39.80;;;17.13;;
16824;SDS011;8529;48.108;-1.706;2024-01-10T03:00:02;38.70;;;18.23;;
16824;SDS011;8529;48.108;-1.706;2024-01-10T03:02:30;44.57;;;18.03;;
16824;SDS011;8529;48.108;-1.706;2024-01-10T03:04:58;42.70;;;18.87;;
16824;SDS011;8529;48.108;-1.706;2024-01-10T03:07:25;40.40;;;17.83;;
16824;SDS011;8529;48.108;-1.706;2024-01-10T03:09:52;40.27;;;18.23;;
16824;SDS011;8529;48.108;-1.706;2024-01-10T03:12:19;37.00;;;18.07;;
16824;SDS011;8529;48.108;-1.706;2024-01-10T03:14:46;38.37;;;17.67;;
16824;SDS011;8529;48.108;-1.706;2024-01-10T03:17:15;45.33;;;18.70;;
16824;SDS011;8529;48.108;-1.706;2024-01-10T03:19:42;40.73;;;18.20;;
16824;SDS011;8529;48.108;-1.706;2024-01-10T03:22:09;38.27;;;17.80;;
16824;SDS011;8529;48.108;-1.706;2024-01-10T03:24:37;42.90;;;19.30;;
16824;SDS011;8529;48.108;-1.706;2024-01-10T03:27:04;39.37;;;17.90;;
16824;SDS011;8529;48.108;-1.706;2024-01-10T03:29:31;38.97;;;17.83;;
16824;SDS011;8529;48.108;-1.706;2024-01-10T03:32:00;39.03;;;18.10;;
16824;SDS011;8529;48.108;-1.706;2024-01-10T03:34:28;48.37;;;18.87;;
16824;SDS011;8529;48.108;-1.706;2024-01-10T03:36:55;41.10;;;17.53;;
16824;SDS011;8529;48.108;-1.706;2024-01-10T03:39:23;41.40;;;19.13;;
16824;SDS011;8529;48.108;-1.706;2024-01-10T03:41:50;36.87;;;17.23;;
16824;SDS011;8529;48.108;-1.706;2024-01-10T03:44:17;39.93;;;18.50;;
16824;SDS011;8529;48.108;-1.706;2024-01-10T03:46:44;39.23;;;16.77;;
16824;SDS011;8529;48.108;-1.706;2024-01-10T03:49:11;40.57;;;17.77;;
16824;SDS011;8529;48.108;-1.706;2024-01-10T03:51:40;38.80;;;17.27;;
16824;SDS011;8529;48.108;-1.706;2024-01-10T03:54:07;37.47;;;17.07;;
16824;SDS011;8529;48.108;-1.706;2024-01-10T03:56:34;35.97;;;18.03;;
16824;SDS011;8529;48.108;-1.706;2024-01-10T03:59:01;34.37;;;17.40;;
16824;SDS011;8529;48.108;-1.706;2024-01-10T04:01:28;38.37;;;18.53;;
16824;SDS011;8529;48.108;-1.706;2024-01-10T04:03:55;38.57;;;17.90;;
16824;SDS011;8529;48.108;-1.706;2024-01-10T04:06:22;37.53;;;18.23;;
16824;SDS011;8529;48.108;-1.706;2024-01-10T04:08:51;35.30;;;17.43;;
16824;SDS011;8529;48.108;-1.706;2024-01-10T04:11:18;40.87;;;17.30;;
16824;SDS011;8529;48.108;-1.706;2024-01-10T04:13:45;36.60;;;16.63;;
16824;SDS011;8529;48.108;-1.706;2024-01-10T04:16:13;39.17;;;17.07;;
16824;SDS011;8529;48.108;-1.706;2024-01-10T04:18:40;36.80;;;16.30;;
16824;SDS011;8529;48.108;-1.706;2024-01-10T04:21:07;29.10;;;15.23;;
16824;SDS011;8529;48.108;-1.706;2024-01-10T04:23:34;33.70;;;15.67;;
16824;SDS011;8529;48.108;-1.706;2024-01-10T04:26:03;31.07;;;16.63;;
16824;SDS011;8529;48.108;-1.706;2024-01-10T04:28:30;31.73;;;15.23;;
16824;SDS011;8529;48.108;-1.706;2024-01-10T04:30:57;33.93;;;16.70;;
16824;SDS011;8529;48.108;-1.706;2024-01-10T04:33:24;33.80;;;16.10;;
16824;SDS011;8529;48.108;-1.706;2024-01-10T04:35:51;29.43;;;15.47;;
16824;SDS011;8529;48.108;-1.706;2024-01-10T04:38:19;30.57;;;15.43;;
16824;SDS011;8529;48.108;-1.706;2024-01-10T04:40:46;32.93;;;16.60;;
16824;SDS011;8529;48.108;-1.706;2024-01-10T04:43:14;32.53;;;16.07;;
16824;SDS011;8529;48.108;-1.706;2024-01-10T04:45:41;30.97;;;16.20;;
16824;SDS011;8529;48.108;-1.706;2024-01-10T04:48:09;34.20;;;15.90;;
16824;SDS011;8529;48.108;-1.706;2024-01-10T04:50:36;33.93;;;15.53;;
16824;SDS011;8529;48.108;-1.706;2024-01-10T04:53:03;31.27;;;16.10;;
16824;SDS011;8529;48.108;-1.706;2024-01-10T04:55:30;35.37;;;15.77;;
16824;SDS011;8529;48.108;-1.706;2024-01-10T04:57:58;32.23;;;15.73;;
16824;SDS011;8529;48.108;-1.706;2024-01-10T05:00:27;31.47;;;15.97;;
16824;SDS011;8529;48.108;-1.706;2024-01-10T05:02:55;32.67;;;15.00;;
16824;SDS011;8529;48.108;-1.706;2024-01-10T05:05:22;31.13;;;15.87;;
16824;SDS011;8529;48.108;-1.706;2024-01-10T05:07:50;26.87;;;13.87;;
16824;SDS011;8529;48.108;-1.706;2024-01-10T05:10:17;30.47;;;14.33;;
16824;SDS011;8529;48.108;-1.706;2024-01-10T05:12:44;31.33;;;15.63;;
16824;SDS011;8529;48.108;-1.706;2024-01-10T05:15:11;32.13;;;14.47;;
16824;SDS011;8529;48.108;-1.706;2024-01-10T05:17:40;30.80;;;15.03;;
16824;SDS011;8529;48.108;-1.706;2024-01-10T05:20:08;29.40;;;14.47;;
16824;SDS011;8529;48.108;-1.706;2024-01-10T05:22:35;25.67;;;15.30;;
16824;SDS011;8529;48.108;-1.706;2024-01-10T05:25:02;31.87;;;14.87;;
16824;SDS011;8529;48.108;-1.706;2024-01-10T05:27:30;26.73;;;14.37;;
16824;SDS011;8529;48.108;-1.706;2024-01-10T05:29:57;31.97;;;15.27;;
16824;SDS011;8529;48.108;-1.706;2024-01-10T05:32:25;31.20;;;15.40;;
16824;SDS011;8529;48.108;-1.706;2024-01-10T05:34:53;31.30;;;15.57;;
16824;SDS011;8529;48.108;-1.706;2024-01-10T05:37:21;31.63;;;15.40;;
16824;SDS011;8529;48.108;-1.706;2024-01-10T05:39:48;29.33;;;14.93;;
16824;SDS011;8529;48.108;-1.706;2024-01-10T05:42:15;27.73;;;15.33;;
16824;SDS011;8529;48.108;-1.706;2024-01-10T05:44:43;31.17;;;15.17;;
16824;SDS011;8529;48.108;-1.706;2024-01-10T05:47:10;31.57;;;14.50;;
16824;SDS011;8529;48.108;-1.706;2024-01-10T05:49:38;28.20;;;15.27;;
16824;SDS011;8529;48.108;-1.706;2024-01-10T05:52:06;31.50;;;15.30;;
16824;SDS011;8529;48.108;-1.706;2024-01-10T05:54:34;29.67;;;15.47;;
16824;SDS011;8529;48.108;-1.706;2024-01-10T05:57:01;27.83;;;14.30;;
16824;SDS011;8529;48.108;-1.706;2024-01-10T05:59:28;29.53;;;15.53;;
16824;SDS011;8529;48.108;-1.706;2024-01-10T06:01:56;30.23;;;14.80;;
16824;SDS011;8529;48.108;-1.706;2024-01-10T06:04:23;26.80;;;14.33;;
16824;SDS011;8529;48.108;-1.706;2024-01-10T06:06:52;28.73;;;14.53;;
16824;SDS011;8529;48.108;-1.706;2024-01-10T06:09:21;28.20;;;14.97;;
16824;SDS011;8529;48.108;-1.706;2024-01-10T06:11:48;31.17;;;16.03;;
16824;SDS011;8529;48.108;-1.706;2024-01-10T06:14:15;33.40;;;15.17;;
16824;SDS011;8529;48.108;-1.706;2024-01-10T06:16:43;30.90;;;15.13;;
16824;SDS011;8529;48.108;-1.706;2024-01-10T06:19:10;29.77;;;14.57;;
16824;SDS011;8529;48.108;-1.706;2024-01-10T06:21:37;30.77;;;15.37;;
16824;SDS011;8529;48.108;-1.706;2024-01-10T06:24:05;31.77;;;15.37;;
16824;SDS011;8529;48.108;-1.706;2024-01-10T06:26:34;35.33;;;16.37;;
16824;SDS011;8529;48.108;-1.706;2024-01-10T06:29:01;32.80;;;15.73;;
16824;SDS011;8529;48.108;-1.706;2024-01-10T06:31:28;31.13;;;15.37;;
16824;SDS011;8529;48.108;-1.706;2024-01-10T06:33:56;31.47;;;15.50;;
16824;SDS011;8529;48.108;-1.706;2024-01-10T06:36:23;27.90;;;15.10;;
16824;SDS011;8529;48.108;-1.706;2024-01-10T06:38:50;30.00;;;15.33;;
16824;SDS011;8529;48.108;-1.706;2024-01-10T06:41:17;32.07;;;15.83;;
16824;SDS011;8529;48.108;-1.706;2024-01-10T06:43:50;31.13;;;16.83;;
16824;SDS011;8529;48.108;-1.706;2024-01-10T06:46:17;34.77;;;16.17;;
16824;SDS011;8529;48.108;-1.706;2024-01-10T06:48:45;32.57;;;15.27;;
16824;SDS011;8529;48.108;-1.706;2024-01-10T06:51:12;26.97;;;14.10;;
16824;SDS011;8529;48.108;-1.706;2024-01-10T06:53:40;31.50;;;15.53;;
16824;SDS011;8529;48.108;-1.706;2024-01-10T06:56:07;31.33;;;15.57;;
16824;SDS011;8529;48.108;-1.706;2024-01-10T06:58:35;30.40;;;14.90;;
16824;SDS011;8529;48.108;-1.706;2024-01-10T07:01:03;31.10;;;16.03;;
16824;SDS011;8529;48.108;-1.706;2024-01-10T07:03:31;32.20;;;16.10;;
16824;SDS011;8529;48.108;-1.706;2024-01-10T07:05:59;31.27;;;15.97;;
16824;SDS011;8529;48.108;-1.706;2024-01-10T07:08:27;29.27;;;14.90;;
16824;SDS011;8529;48.108;-1.706;2024-01-10T07:10:55;30.63;;;14.87;;
16824;SDS011;8529;48.108;-1.706;2024-01-10T07:13:23;31.93;;;16.20;;
16824;SDS011;8529;48.108;-1.706;2024-01-10T07:15:50;31.50;;;15.73;;
16824;SDS011;8529;48.108;-1.706;2024-01-10T07:18:19;33.40;;;15.77;;
16824;SDS011;8529;48.108;-1.706;2024-01-10T07:20:46;31.60;;;15.87;;
16824;SDS011;8529;48.108;-1.706;2024-01-10T07:23:13;28.73;;;15.13;;
16824;SDS011;8529;48.108;-1.706;2024-01-10T07:25:40;31.67;;;14.70;;
16824;SDS011;8529;48.108;-1.706;2024-01-10T07:28:07;33.27;;;16.57;;
16824;SDS011;8529;48.108;-1.706;2024-01-10T07:30:34;32.73;;;16.07;;
16824;SDS011;8529;48.108;-1.706;2024-01-10T07:33:02;33.43;;;15.70;;
16824;SDS011;8529;48.108;-1.706;2024-01-10T07:35:30;32.00;;;15.07;;
16824;SDS011;8529;48.108;-1.706;2024-01-10T07:37:57;27.80;;;15.00;;
16824;SDS011;8529;48.108;-1.706;2024-01-10T07:40:25;27.53;;;15.53;;
16824;SDS011;8529;48.108;-1.706;2024-01-10T07:42:52;27.37;;;14.97;;
16824;SDS011;8529;48.108;-1.706;2024-01-10T07:45:19;31.50;;;15.63;;
16824;SDS011;8529;48.108;-1.706;2024-01-10T07:47:46;35.17;;;15.43;;
16824;SDS011;8529;48.108;-1.706;2024-01-10T07:50:13;30.33;;;15.27;;
16824;SDS011;8529;48.108;-1.706;2024-01-10T07:52:42;31.20;;;15.50;;
16824;SDS011;8529;48.108;-1.706;2024-01-10T07:55:09;32.90;;;15.37;;
16824;SDS011;8529;48.108;-1.706;2024-01-10T07:57:36;33.53;;;16.33;;
16824;SDS011;8529;48.108;-1.706;2024-01-10T08:00:04;31.07;;;15.60;;
16824;SDS011;8529;48.108;-1.706;2024-01-10T08:02:35;32.17;;;15.43;;
16824;SDS011;8529;48.108;-1.706;2024-01-10T08:05:02;33.13;;;16.77;;
16824;SDS011;8529;48.108;-1.706;2024-01-10T08:07:33;34.27;;;16.80;;
16824;SDS011;8529;48.108;-1.706;2024-01-10T08:10:03;32.70;;;16.53;;
16824;SDS011;8529;48.108;-1.706;2024-01-10T08:12:30;34.17;;;16.53;;
16824;SDS011;8529;48.108;-1.706;2024-01-10T08:14:58;30.40;;;15.73;;
16824;SDS011;8529;48.108;-1.706;2024-01-10T08:17:25;30.70;;;16.40;;
16824;SDS011;8529;48.108;-1.706;2024-01-10T08:19:52;34.03;;;16.30;;
16824;SDS011;8529;48.108;-1.706;2024-01-10T08:22:20;31.47;;;16.40;;
16824;SDS011;8529;48.108;-1.706;2024-01-10T08:24:48;31.33;;;15.73;;
16824;SDS011;8529;48.108;-1.706;2024-01-10T08:27:16;41.17;;;17.13;;
16824;SDS011;8529;48.108;-1.706;2024-01-10T08:29:43;28.97;;;15.90;;
16824;SDS011;8529;48.108;-1.706;2024-01-10T08:32:10;34.43;;;17.13;;
16824;SDS011;8529;48.108;-1.706;2024-01-10T08:34:38;36.53;;;17.10;;
16824;SDS011;8529;48.108;-1.706;2024-01-10T08:37:05;34.07;;;16.20;;
16824;SDS011;8529;48.108;-1.706;2024-01-10T08:39:32;33.90;;;16.30;;
16824;SDS011;8529;48.108;-1.706;2024-01-10T08:41:59;37.97;;;17.87;;
16824;SDS011;8529;48.108;-1.706;2024-01-10T08:44:28;39.17;;;17.83;;
16824;SDS011;8529;48.108;-1.706;2024-01-10T08:46:55;33.23;;;17.10;;
16824;SDS011;8529;48.108;-1.706;2024-01-10T08:49:22;33.63;;;17.00;;
16824;SDS011;8529;48.108;-1.706;2024-01-10T08:51:50;34.07;;;16.80;;
16824;SDS011;8529;48.108;-1.706;2024-01-10T08:54:18;36.67;;;16.70;;
16824;SDS011;8529;48.108;-1.706;2024-01-10T08:56:47;35.43;;;16.10;;
16824;SDS011;8529;48.108;-1.706;2024-01-10T08:59:14;40.03;;;18.07;;
16824;SDS011;8529;48.108;-1.706;2024-01-10T09:01:43;47.60;;;20.37;;
16824;SDS011;8529;48.108;-1.706;2024-01-10T09:04:10;47.00;;;21.10;;
16824;SDS011;8529;48.108;-1.706;2024-01-10T09:06:37;43.27;;;19.90;;
16824;SDS011;8529;48.108;-1.706;2024-01-10T09:09:05;42.23;;;19.13;;
16824;SDS011;8529;48.108;-1.706;2024-01-10T09:11:32;45.10;;;20.70;;
16824;SDS011;8529;48.108;-1.706;2024-01-10T09:14:00;41.63;;;18.50;;
16824;SDS011;8529;48.108;-1.706;2024-01-10T09:16:27;45.33;;;19.67;;
16824;SDS011;8529;48.108;-1.706;2024-01-10T09:18:56;48.53;;;23.53;;
16824;SDS011;8529;48.108;-1.706;2024-01-10T09:21:24;62.70;;;25.37;;
16824;SDS011;8529;48.108;-1.706;2024-01-10T09:23:51;35.80;;;16.67;;
16824;SDS011;8529;48.108;-1.706;2024-01-10T09:26:19;37.00;;;18.87;;
16824;SDS011;8529;48.108;-1.706;2024-01-10T09:28:46;65.97;;;28.70;;
16824;SDS011;8529;48.108;-1.706;2024-01-10T09:31:13;37.57;;;18.13;;
16824;SDS011;8529;48.108;-1.706;2024-01-10T09:33:40;49.53;;;20.77;;
16824;SDS011;8529;48.108;-1.706;2024-01-10T09:36:09;53.13;;;22.70;;
16824;SDS011;8529;48.108;-1.706;2024-01-10T09:38:36;57.73;;;27.97;;
16824;SDS011;8529;48.108;-1.706;2024-01-10T09:41:04;60.67;;;29.97;;
16824;SDS011;8529;48.108;-1.706;2024-01-10T09:43:31;47.03;;;25.87;;
16824;SDS011;8529;48.108;-1.706;2024-01-10T09:46:00;40.63;;;20.63;;
16824;SDS011;8529;48.108;-1.706;2024-01-10T09:48:28;38.77;;;18.67;;
16824;SDS011;8529;48.108;-1.706;2024-01-10T09:50:56;35.43;;;17.90;;
16824;SDS011;8529;48.108;-1.706;2024-01-10T09:53:25;36.67;;;17.00;;
16824;SDS011;8529;48.108;-1.706;2024-01-10T09:55:52;62.10;;;25.57;;
16824;SDS011;8529;48.108;-1.706;2024-01-10T09:58:22;121.83;;;34.87;;
16824;SDS011;8529;48.108;-1.706;2024-01-10T10:00:50;104.70;;;32.40;;
16824;SDS011;8529;48.108;-1.706;2024-01-10T10:03:18;45.83;;;19.17;;
16824;SDS011;8529;48.108;-1.706;2024-01-10T10:05:45;129.20;;;33.90;;
16824;SDS011;8529;48.108;-1.706;2024-01-10T10:08:13;64.60;;;22.70;;
16824;SDS011;8529;48.108;-1.706;2024-01-10T10:10:46;164.00;;;48.13;;
16824;SDS011;8529;48.108;-1.706;2024-01-10T10:13:23;54.70;;;22.50;;
16824;SDS011;8529;48.108;-1.706;2024-01-10T10:15:57;45.40;;;20.37;;
16824;SDS011;8529;48.108;-1.706;2024-01-10T10:18:25;57.97;;;22.10;;
16824;SDS011;8529;48.108;-1.706;2024-01-10T10:21:05;122.57;;;37.40;;
16824;SDS011;8529;48.108;-1.706;2024-01-10T10:23:33;54.23;;;22.77;;
16824;SDS011;8529;48.108;-1.706;2024-01-10T10:26:02;61.33;;;23.80;;
16824;SDS011;8529;48.108;-1.706;2024-01-10T10:28:39;42.87;;;19.80;;
16824;SDS011;8529;48.108;-1.706;2024-01-10T10:31:06;49.40;;;19.57;;
16824;SDS011;8529;48.108;-1.706;2024-01-10T10:33:33;40.30;;;18.03;;
16824;SDS011;8529;48.108;-1.706;2024-01-10T10:36:01;43.53;;;18.70;;
16824;SDS011;8529;48.108;-1.706;2024-01-10T10:38:28;36.70;;;17.77;;
16824;SDS011;8529;48.108;-1.706;2024-01-10T10:40:55;42.00;;;18.90;;
16824;SDS011;8529;48.108;-1.706;2024-01-10T10:43:26;41.53;;;19.70;;
16824;SDS011;8529;48.108;-1.706;2024-01-10T10:45:56;39.13;;;17.57;;
16824;SDS011;8529;48.108;-1.706;2024-01-10T10:48:24;40.40;;;19.07;;
16824;SDS011;8529;48.108;-1.706;2024-01-10T10:50:54;40.90;;;18.13;;
16824;SDS011;8529;48.108;-1.706;2024-01-10T10:53:24;35.47;;;17.67;;
16824;SDS011;8529;48.108;-1.706;2024-01-10T10:55:52;38.97;;;17.40;;
16824;SDS011;8529;48.108;-1.706;2024-01-10T10:58:20;33.33;;;17.47;;
16824;SDS011;8529;48.108;-1.706;2024-01-10T11:00:49;35.30;;;18.27;;
16824;SDS011;8529;48.108;-1.706;2024-01-10T11:03:17;41.27;;;19.57;;
16824;SDS011;8529;48.108;-1.706;2024-01-10T11:05:45;37.03;;;18.07;;
16824;SDS011;8529;48.108;-1.706;2024-01-10T11:08:14;41.90;;;18.90;;
16824;SDS011;8529;48.108;-1.706;2024-01-10T11:10:43;38.77;;;18.47;;
16824;SDS011;8529;48.108;-1.706;2024-01-10T11:13:17;37.40;;;18.53;;
16824;SDS011;8529;48.108;-1.706;2024-01-10T11:16:02;34.40;;;16.67;;
16824;SDS011;8529;48.108;-1.706;2024-01-10T11:18:40;32.50;;;16.37;;
16824;SDS011;8529;48.108;-1.706;2024-01-10T11:21:14;36.47;;;17.20;;
16824;SDS011;8529;48.108;-1.706;2024-01-10T11:23:46;43.93;;;18.63;;
16824;SDS011;8529;48.108;-1.706;2024-01-10T11:26:14;39.60;;;18.57;;
16824;SDS011;8529;48.108;-1.706;2024-01-10T11:28:43;38.17;;;18.87;;
16824;SDS011;8529;48.108;-1.706;2024-01-10T11:31:12;39.57;;;18.50;;
16824;SDS011;8529;48.108;-1.706;2024-01-10T11:33:40;40.77;;;20.43;;
16824;SDS011;8529;48.108;-1.706;2024-01-10T11:36:09;44.83;;;20.10;;
16824;SDS011;8529;48.108;-1.706;2024-01-10T11:38:38;42.20;;;20.90;;
16824;SDS011;8529;48.108;-1.706;2024-01-10T11:41:06;34.33;;;17.60;;
16824;SDS011;8529;48.108;-1.706;2024-01-10T11:43:34;33.73;;;17.53;;
16824;SDS011;8529;48.108;-1.706;2024-01-10T11:46:02;40.10;;;18.30;;
16824;SDS011;8529;48.108;-1.706;2024-01-10T11:48:32;38.20;;;19.07;;
16824;SDS011;8529;48.108;-1.706;2024-01-10T11:51:00;39.30;;;18.73;;
16824;SDS011;8529;48.108;-1.706;2024-01-10T11:53:43;40.67;;;19.57;;
16824;SDS011;8529;48.108;-1.706;2024-01-10T11:56:12;48.60;;;22.63;;
16824;SDS011;8529;48.108;-1.706;2024-01-10T11:58:54;36.90;;;18.90;;
16824;SDS011;8529;48.108;-1.706;2024-01-10T12:01:21;40.90;;;19.17;;
16824;SDS011;8529;48.108;-1.706;2024-01-10T12:03:51;35.50;;;18.50;;
16824;SDS011;8529;48.108;-1.706;2024-01-10T12:06:20;37.60;;;18.93;;
16824;SDS011;8529;48.108;-1.706;2024-01-10T12:08:48;39.43;;;18.67;;
16824;SDS011;8529;48.108;-1.706;2024-01-10T12:11:15;40.13;;;19.07;;
16824;SDS011;8529;48.108;-1.706;2024-01-10T12:13:42;42.03;;;19.17;;
16824;SDS011;8529;48.108;-1.706;2024-01-10T12:16:10;38.57;;;18.40;;
16824;SDS011;8529;48.108;-1.706;2024-01-10T12:18:37;39.47;;;18.33;;
16824;SDS011;8529;48.108;-1.706;2024-01-10T12:21:06;39.47;;;17.73;;
16824;SDS011;8529;48.108;-1.706;2024-01-10T12:23:35;37.43;;;17.57;;
16824;SDS011;8529;48.108;-1.706;2024-01-10T12:26:03;36.70;;;18.80;;
16824;SDS011;8529;48.108;-1.706;2024-01-10T12:28:32;40.13;;;18.40;;
16824;SDS011;8529;48.108;-1.706;2024-01-10T12:30:59;35.93;;;17.63;;
16824;SDS011;8529;48.108;-1.706;2024-01-10T12:33:26;41.83;;;17.97;;
16824;SDS011;8529;48.108;-1.706;2024-01-10T12:36:03;39.00;;;17.83;;
16824;SDS011;8529;48.108;-1.706;2024-01-10T12:38:33;38.13;;;17.60;;
16824;SDS011;8529;48.108;-1.706;2024-01-10T12:41:01;32.77;;;17.50;;
16824;SDS011;8529;48.108;-1.706;2024-01-10T12:43:28;36.17;;;16.17;;
16824;SDS011;8529;48.108;-1.706;2024-01-10T12:46:05;39.80;;;18.97;;
16824;SDS011;8529;48.108;-1.706;2024-01-10T12:48:33;40.20;;;19.77;;
16824;SDS011;8529;48.108;-1.706;2024-01-10T12:51:01;36.77;;;18.57;;
16824;SDS011;8529;48.108;-1.706;2024-01-10T12:53:31;35.27;;;17.03;;
16824;SDS011;8529;48.108;-1.706;2024-01-10T12:55:59;39.73;;;19.00;;
16824;SDS011;8529;48.108;-1.706;2024-01-10T12:58:27;42.50;;;19.47;;
16824;SDS011;8529;48.108;-1.706;2024-01-10T13:00:54;38.90;;;18.10;;
16824;SDS011;8529;48.108;-1.706;2024-01-10T13:03:22;38.33;;;18.80;;
16824;SDS011;8529;48.108;-1.706;2024-01-10T13:05:49;40.17;;;18.93;;
16824;SDS011;8529;48.108;-1.706;2024-01-10T13:08:17;44.00;;;19.50;;
16824;SDS011;8529;48.108;-1.706;2024-01-10T13:10:44;41.87;;;20.47;;
16824;SDS011;8529;48.108;-1.706;2024-01-10T13:13:13;38.67;;;18.73;;
16824;SDS011;8529;48.108;-1.706;2024-01-10T13:15:42;40.33;;;19.00;;
16824;SDS011;8529;48.108;-1.706;2024-01-10T13:18:10;42.40;;;19.47;;
16824;SDS011;8529;48.108;-1.706;2024-01-10T13:20:38;40.43;;;19.53;;
16824;SDS011;8529;48.108;-1.706;2024-01-10T13:23:05;39.07;;;18.90;;
16824;SDS011;8529;48.108;-1.706;2024-01-10T13:25:32;42.70;;;19.73;;
16824;SDS011;8529;48.108;-1.706;2024-01-10T13:28:00;39.40;;;18.97;;
16824;SDS011;8529;48.108;-1.706;2024-01-10T13:30:28;44.10;;;20.63;;
16824;SDS011;8529;48.108;-1.706;2024-01-10T13:32:55;48.00;;;20.47;;
16824;SDS011;8529;48.108;-1.706;2024-01-10T13:35:23;42.73;;;19.67;;
16824;SDS011;8529;48.108;-1.706;2024-01-10T13:37:50;40.47;;;20.67;;
16824;SDS011;8529;48.108;-1.706;2024-01-10T13:40:17;42.87;;;19.67;;
16824;SDS011;8529;48.108;-1.706;2024-01-10T13:42:48;43.57;;;19.03;;
16824;SDS011;8529;48.108;-1.706;2024-01-10T13:45:16;34.30;;;17.60;;
16824;SDS011;8529;48.108;-1.706;2024-01-10T13:47:45;41.60;;;19.47;;
16824;SDS011;8529;48.108;-1.706;2024-01-10T13:50:12;36.60;;;18.20;;
16824;SDS011;8529;48.108;-1.706;2024-01-10T13:52:39;37.67;;;18.13;;
16824;SDS011;8529;48.108;-1.706;2024-01-10T13:55:07;36.83;;;17.50;;
16824;SDS011;8529;48.108;-1.706;2024-01-10T13:57:34;37.17;;;18.53;;
16824;SDS011;8529;48.108;-1.706;2024-01-10T14:00:02;41.20;;;19.67;;
16824;SDS011;8529;48.108;-1.706;2024-01-10T14:02:32;43.30;;;19.13;;
16824;SDS011;8529;48.108;-1.706;2024-01-10T14:05:02;40.67;;;19.23;;
16824;SDS011;8529;48.108;-1.706;2024-01-10T14:07:31;40.93;;;18.53;;
16824;SDS011;8529;48.108;-1.706;2024-01-10T14:09:59;41.37;;;19.97;;
16824;SDS011;8529;48.108;-1.706;2024-01-10T14:12:26;37.23;;;17.47;;
16824;SDS011;8529;48.108;-1.706;2024-01-10T14:14:55;35.17;;;17.00;;
16824;SDS011;8529;48.108;-1.706;2024-01-10T14:17:22;43.87;;;19.07;;
16824;SDS011;8529;48.108;-1.706;2024-01-10T14:19:50;39.73;;;17.90;;
16824;SDS011;8529;48.108;-1.706;2024-01-10T14:22:20;37.80;;;16.93;;
16824;SDS011;8529;48.108;-1.706;2024-01-10T14:24:48;38.50;;;18.23;;